Time;durP1;ratioP1;P1;durP2;ratioP2;P2;SDS_P1;SDS_P2;PMS_P1;PMS_P2;Temp;Humidity;BMP_temperature;BMP_pressure;BME280_temperature;BME280_humidity;BME280_pressure;Samples;Min_cycle;Max_cycle;Signal;HPM_P1;HPM_P2
2023/10/22 00:00:33;;;;;;;4.35;2.03;;;;;;;;;;4901927;29;20023;-83
2023/10/22 00:03:18;;;;;;;3.13;1.90;;;;;;;;;;4914862;29;20049;-83
2023/10/22 00:06:03;;;;;;;3.38;2.20;;;;;;;;;;4904674;29;20127;-84
2023/10/22 00:08:49;;;;;;;4.22;2.30;;;;;;;;;;4903644;29;20035;-83
2023/10/22 00:11:34;;;;;;;7.13;3.25;;;;;;;;;;4901999;29;20035;-84
2023/10/22 00:14:19;;;;;;;3.60;2.30;;;;;;;;;;4908108;29;20122;-84
2023/10/22 00:17:05;;;;;;;4.63;2.30;;;;;;;;;;4912809;29;20098;-83
2023/10/22 00:19:50;;;;;;;3.60;2.25;;;;;;;;;;4908436;29;20063;-83
2023/10/22 00:22:35;;;;;;;5.07;2.55;;;;;;;;;;4913255;29;20101;-84
2023/10/22 00:25:21;;;;;;;3.10;2.13;;;;;;;;;;4910335;29;20114;-83
2023/10/22 00:28:06;;;;;;;6.90;2.00;;;;;;;;;;4916265;29;20106;-84
2023/10/22 00:30:51;;;;;;;5.35;2.45;;;;;;;;;;4909170;29;20544;-83
2023/10/22 00:33:36;;;;;;;5.05;2.33;;;;;;;;;;4916853;29;20020;-83
2023/10/22 00:36:24;;;;;;;8.50;3.50;;;;;;;;;;4908212;29;20036;-83
2023/10/22 00:39:09;;;;;;;3.78;2.35;;;;;;;;;;4927248;29;20032;-84
2023/10/22 00:45:05;;;;;;;3.10;1.92;;;;;;;;;;4889606;29;20039;-82
2023/10/22 00:47:51;;;;;;;4.43;2.22;;;;;;;;;;4917656;29;20316;-82
2023/10/22 00:50:39;;;;;;;4.03;2.38;;;;;;;;;;4917615;29;20110;-82
2023/10/22 00:53:27;;;;;;;2.80;1.95;;;;;;;;;;4923090;28;20048;-82
2023/10/22 00:56:12;;;;;;;2.70;2.00;;;;;;;;;;4929760;29;20034;-82
2023/10/22 00:58:58;;;;;;;3.03;1.80;;;;;;;;;;4906840;29;20035;-83
2023/10/22 01:01:43;;;;;;;2.13;1.70;;;;;;;;;;4909191;29;20038;-82
2023/10/22 01:04:29;;;;;;;3.20;1.95;;;;;;;;;;4910906;29;20102;-83
2023/10/22 01:07:17;;;;;;;3.63;2.55;;;;;;;;;;4910502;29;20031;-83
2023/10/22 01:10:03;;;;;;;3.47;1.60;;;;;;;;;;4916918;29;20422;-84
2023/10/22 01:12:48;;;;;;;3.92;2.13;;;;;;;;;;4911810;29;20058;-84
2023/10/22 01:15:33;;;;;;;3.67;1.92;;;;;;;;;;4911901;29;20055;-84
2023/10/22 01:18:19;;;;;;;4.07;2.00;;;;;;;;;;4910657;29;20120;-83
2023/10/22 01:21:04;;;;;;;4.90;1.83;;;;;;;;;;4912915;29;20031;-85
2023/10/22 01:23:55;;;;;;;6.35;2.03;;;;;;;;;;4902846;29;20030;-85
2023/10/22 01:26:41;;;;;;;3.25;1.70;;;;;;;;;;4902538;29;20154;-84
2023/10/22 01:29:26;;;;;;;5.40;2.05;;;;;;;;;;4911247;29;20047;-84
2023/10/22 01:32:13;;;;;;;6.78;2.05;;;;;;;;;;4912261;29;20032;-84
2023/10/22 01:34:59;;;;;;;4.15;1.77;;;;;;;;;;4917703;29;20095;-84
2023/10/22 01:37:44;;;;;;;3.47;2.05;;;;;;;;;;4912673;29;20030;-84
2023/10/22 01:40:29;;;;;;;4.90;2.03;;;;;;;;;;4915901;29;20141;-84
2023/10/22 01:43:15;;;;;;;3.60;1.65;;;;;;;;;;4914163;29;20095;-83
2023/10/22 01:46:00;;;;;;;3.90;2.15;;;;;;;;;;4913739;29;20039;-82
2023/10/22 01:48:45;;;;;;;2.60;1.70;;;;;;;;;;4913498;29;20028;-82
2023/10/22 01:51:31;;;;;;;1.67;1.58;;;;;;;;;;4930551;29;20435;-82
2023/10/22 01:54:16;;;;;;;4.63;2.28;;;;;;;;;;4897655;29;20055;-83
2023/10/22 01:57:01;;;;;;;3.78;2.10;;;;;;;;;;4914940;29;20408;-83
2023/10/22 01:59:46;;;;;;;3.17;2.65;;;;;;;;;;4917711;29;20027;-83
2023/10/22 02:02:34;;;;;;;2.22;1.67;;;;;;;;;;4916975;29;20446;-82
2023/10/22 02:05:19;;;;;;;5.45;1.80;;;;;;;;;;4914815;29;20035;-83
2023/10/22 02:08:06;;;;;;;3.42;1.80;;;;;;;;;;4917465;29;20035;-84
2023/10/22 02:10:51;;;;;;;3.13;1.92;;;;;;;;;;4912381;29;20036;-83
2023/10/22 02:13:36;;;;;;;3.72;1.58;;;;;;;;;;4912598;29;20114;-83
2023/10/22 02:16:21;;;;;;;2.47;1.60;;;;;;;;;;4909148;29;20474;-84
2023/10/22 02:19:07;;;;;;;3.00;1.85;;;;;;;;;;4917833;29;20023;-84
2023/10/22 02:21:55;;;;;;;3.28;2.40;;;;;;;;;;4917885;29;20059;-83
2023/10/22 02:24:40;;;;;;;2.75;1.42;;;;;;;;;;4907627;29;20028;-82
2023/10/22 02:27:25;;;;;;;4.05;1.75;;;;;;;;;;4904503;29;20055;-83
2023/10/22 02:30:14;;;;;;;3.97;1.50;;;;;;;;;;4911894;29;20032;-83
2023/10/22 02:32:59;;;;;;;3.65;1.50;;;;;;;;;;4913232;29;20035;-83
2023/10/22 02:35:45;;;;;;;1.98;1.70;;;;;;;;;;4913934;29;20103;-84
2023/10/22 02:38:30;;;;;;;4.05;1.60;;;;;;;;;;4909339;29;20035;-83
2023/10/22 02:41:16;;;;;;;2.05;1.52;;;;;;;;;;4915658;29;20023;-84
2023/10/22 02:44:01;;;;;;;5.60;2.45;;;;;;;;;;4917150;29;20211;-83
2023/10/22 02:46:46;;;;;;;4.90;1.50;;;;;;;;;;4914719;29;20027;-83
2023/10/22 02:49:31;;;;;;;2.75;1.77;;;;;;;;;;4912746;29;20036;-83
2023/10/22 02:52:26;;;;;;;3.13;1.80;;;;;;;;;;4906797;29;20099;-82
2023/10/22 02:55:11;;;;;;;2.45;1.65;;;;;;;;;;4906675;29;20043;-81
2023/10/22 02:57:56;;;;;;;5.05;1.67;;;;;;;;;;4899836;29;20085;-82
2023/10/22 03:00:41;;;;;;;2.72;1.30;;;;;;;;;;4909383;29;20042;-82
2023/10/22 03:03:27;;;;;;;3.45;1.42;;;;;;;;;;4908190;29;20020;-84
2023/10/22 03:06:12;;;;;;;3.97;2.05;;;;;;;;;;4911595;29;20035;-83
2023/10/22 03:08:58;;;;;;;3.03;1.40;;;;;;;;;;4910077;29;20127;-82
2023/10/22 03:11:43;;;;;;;4.00;1.50;;;;;;;;;;4899771;29;20040;-84
2023/10/22 03:14:29;;;;;;;2.17;1.40;;;;;;;;;;4916142;29;20105;-83
2023/10/22 03:17:14;;;;;;;3.20;1.95;;;;;;;;;;4893256;29;20099;-83
2023/10/22 03:20:00;;;;;;;3.63;1.60;;;;;;;;;;4908375;29;20063;-82
2023/10/22 03:22:45;;;;;;;3.13;1.60;;;;;;;;;;4912999;29;20115;-83
2023/10/22 03:25:50;;;;;;;4.85;1.48;;;;;;;;;;4909299;29;20098;-83
2023/10/22 03:28:36;;;;;;;2.22;1.30;;;;;;;;;;4901772;29;20040;-83
2023/10/22 03:31:21;;;;;;;2.90;1.63;;;;;;;;;;4926035;28;20420;-83
2023/10/22 03:34:07;;;;;;;3.58;1.75;;;;;;;;;;4916019;29;20038;-84
2023/10/22 03:36:53;;;;;;;3.53;1.08;;;;;;;;;;4901304;29;20044;-83
2023/10/22 03:39:38;;;;;;;3.67;1.70;;;;;;;;;;4903124;29;20015;-83
2023/10/22 03:42:23;;;;;;;8.55;1.50;;;;;;;;;;4901833;29;20070;-82
2023/10/22 03:45:09;;;;;;;2.67;1.80;;;;;;;;;;4918458;29;20034;-82
2023/10/22 03:47:54;;;;;;;4.80;1.63;;;;;;;;;;4907469;29;20055;-82
2023/10/22 03:50:42;;;;;;;3.33;1.77;;;;;;;;;;4915000;29;20028;-83
2023/10/22 03:53:28;;;;;;;2.15;1.40;;;;;;;;;;4906213;29;20094;-83
2023/10/22 03:56:16;;;;;;;4.00;1.73;;;;;;;;;;4904672;29;20525;-82
2023/10/22 03:59:01;;;;;;;4.35;1.50;;;;;;;;;;4914080;29;20117;-83
2023/10/22 04:01:46;;;;;;;4.43;1.40;;;;;;;;;;4912094;29;20059;-82
2023/10/22 04:04:32;;;;;;;4.38;1.55;;;;;;;;;;4926225;29;20037;-84
2023/10/22 04:07:17;;;;;;;5.18;1.52;;;;;;;;;;4935885;29;20020;-84
2023/10/22 04:10:09;;;;;;;4.65;1.75;;;;;;;;;;4932524;29;20020;-83
2023/10/22 04:12:55;;;;;;;7.20;2.50;;;;;;;;;;4937313;29;20024;-83
2023/10/22 04:15:40;;;;;;;2.92;1.50;;;;;;;;;;4914847;29;20023;-84
2023/10/22 04:18:25;;;;;;;2.78;1.35;;;;;;;;;;4915396;29;20031;-83
2023/10/22 04:21:14;;;;;;;5.32;1.90;;;;;;;;;;4910808;29;20040;-84
2023/10/22 04:23:59;;;;;;;2.60;1.52;;;;;;;;;;4915101;29;20475;-83
2023/10/22 04:26:44;;;;;;;5.50;1.50;;;;;;;;;;4918042;29;20448;-84
2023/10/22 04:29:29;;;;;;;4.03;1.65;;;;;;;;;;4910991;29;20032;-83
2023/10/22 04:32:16;;;;;;;5.35;2.03;;;;;;;;;;4913512;29;20031;-84
2023/10/22 04:35:01;;;;;;;3.85;1.90;;;;;;;;;;4915974;29;20486;-85
2023/10/22 04:37:47;;;;;;;2.30;1.40;;;;;;;;;;4910863;29;20066;-84
2023/10/22 04:40:33;;;;;;;1.77;1.42;;;;;;;;;;4898843;29;20028;-85
2023/10/22 04:43:18;;;;;;;2.92;1.30;;;;;;;;;;4910685;29;20357;-84
2023/10/22 04:46:03;;;;;;;3.35;1.70;;;;;;;;;;4927668;29;20027;-85
2023/10/22 04:48:49;;;;;;;3.30;1.60;;;;;;;;;;4913423;29;20035;-84
2023/10/22 04:51:36;;;;;;;2.65;1.58;;;;;;;;;;4905504;29;20023;-84
2023/10/22 04:54:21;;;;;;;2.55;1.40;;;;;;;;;;4919132;29;20280;-83
2023/10/22 04:57:06;;;;;;;2.60;1.50;;;;;;;;;;4926179;29;20734;-83
2023/10/22 04:59:52;;;;;;;5.05;1.92;;;;;;;;;;4925096;29;20465;-83
2023/10/22 05:02:37;;;;;;;5.60;1.98;;;;;;;;;;4928205;29;20052;-83
2023/10/22 05:05:23;;;;;;;5.10;2.15;;;;;;;;;;4920433;29;20032;-83
2023/10/22 05:08:09;;;;;;;4.90;1.55;;;;;;;;;;4924272;29;20038;-84
2023/10/22 05:10:54;;;;;;;3.72;2.15;;;;;;;;;;4919965;29;20507;-83
2023/10/22 05:13:39;;;;;;;2.45;1.77;;;;;;;;;;4930201;29;20510;-85
2023/10/22 05:16:26;;;;;;;5.82;1.90;;;;;;;;;;4930960;29;20090;-82
2023/10/22 05:19:12;;;;;;;2.30;1.75;;;;;;;;;;4927149;29;20032;-83
2023/10/22 05:22:01;;;;;;;4.05;1.58;;;;;;;;;;4931594;29;20032;-82
2023/10/22 05:24:49;;;;;;;5.40;2.17;;;;;;;;;;4924529;29;20110;-81
2023/10/22 05:27:34;;;;;;;5.70;1.85;;;;;;;;;;4930685;29;20055;-83
2023/10/22 05:30:20;;;;;;;3.33;1.67;;;;;;;;;;4931150;29;20483;-83
2023/10/22 05:33:05;;;;;;;4.60;1.67;;;;;;;;;;4932968;29;20029;-83
2023/10/22 05:35:50;;;;;;;3.90;1.60;;;;;;;;;;4919036;29;20022;-84
2023/10/22 05:38:35;;;;;;;6.95;1.85;;;;;;;;;;4931219;29;20020;-83
2023/10/22 05:41:27;;;;;;;4.13;1.75;;;;;;;;;;4926625;29;20043;-83
2023/10/22 05:44:13;;;;;;;2.60;1.50;;;;;;;;;;4919473;29;20034;-83
2023/10/22 05:46:58;;;;;;;9.30;1.90;;;;;;;;;;4929150;29;20111;-84
2023/10/22 05:49:44;;;;;;;4.85;1.70;;;;;;;;;;4930061;29;20386;-84
2023/10/22 05:52:29;;;;;;;2.78;1.55;;;;;;;;;;4927541;29;20040;-84
2023/10/22 05:55:14;;;;;;;5.00;1.83;;;;;;;;;;4935128;29;20505;-82
2023/10/22 05:57:59;;;;;;;2.05;1.40;;;;;;;;;;4940407;29;20121;-84
2023/10/22 06:00:47;;;;;;;4.80;2.00;;;;;;;;;;4949723;28;20034;-85
2023/10/22 06:03:33;;;;;;;1.98;1.27;;;;;;;;;;4927248;28;20484;-85
2023/10/22 06:06:19;;;;;;;3.08;1.58;;;;;;;;;;4932924;28;20473;-85
2023/10/22 06:09:04;;;;;;;4.75;2.28;;;;;;;;;;4936767;29;20098;-84
2023/10/22 06:11:49;;;;;;;6.10;1.85;;;;;;;;;;4936691;28;20027;-88
2023/10/22 06:14:35;;;;;;;2.55;1.33;;;;;;;;;;4938031;29;20016;-89
2023/10/22 06:17:20;;;;;;;6.13;1.90;;;;;;;;;;4936178;28;20058;-89
2023/10/22 06:20:06;;;;;;;8.40;2.20;;;;;;;;;;4932490;28;20026;-85
2023/10/22 06:22:51;;;;;;;3.67;1.95;;;;;;;;;;4928726;28;20028;-85
2023/10/22 06:25:36;;;;;;;2.17;1.50;;;;;;;;;;4925139;28;20102;-85
2023/10/22 06:28:21;;;;;;;7.25;2.03;;;;;;;;;;4930301;29;20039;-87
2023/10/22 06:31:10;;;;;;;4.28;1.48;;;;;;;;;;4931102;29;20028;-87
2023/10/22 06:33:55;;;;;;;3.65;1.65;;;;;;;;;;4928376;28;20035;-86
2023/10/22 06:36:40;;;;;;;5.78;1.88;;;;;;;;;;4921005;29;20027;-87
2023/10/22 06:39:25;;;;;;;4.35;2.10;;;;;;;;;;4924733;28;20031;-87
2023/10/22 06:42:11;;;;;;;4.32;1.88;;;;;;;;;;4932069;28;20367;-86
2023/10/22 06:44:56;;;;;;;3.17;1.90;;;;;;;;;;4929488;28;20038;-88
2023/10/22 06:47:41;;;;;;;5.50;1.60;;;;;;;;;;4921917;29;20026;-89
2023/10/22 06:50:27;;;;;;;4.22;1.55;;;;;;;;;;4939774;28;20377;-86
2023/10/22 06:53:12;;;;;;;5.13;2.10;;;;;;;;;;4927288;28;20067;-88
2023/10/22 06:55:57;;;;;;;3.00;1.55;;;;;;;;;;4910647;29;20020;-87
2023/10/22 06:58:44;;;;;;;3.63;1.80;;;;;;;;;;4931785;29;20024;-86
2023/10/22 07:01:30;;;;;;;3.42;1.17;;;;;;;;;;4912276;29;20070;-87
2023/10/22 07:04:15;;;;;;;7.15;1.73;;;;;;;;;;4910588;29;20024;-88
2023/10/22 07:07:00;;;;;;;2.08;1.40;;;;;;;;;;4902741;29;20031;-86
2023/10/22 07:09:45;;;;;;;4.75;1.58;;;;;;;;;;4910767;29;20039;-89
2023/10/22 07:12:31;;;;;;;3.05;1.58;;;;;;;;;;4913767;29;20114;-88
2023/10/22 07:15:16;;;;;;;5.60;1.88;;;;;;;;;;4896004;29;20028;-87
2023/10/22 07:18:01;;;;;;;4.32;1.92;;;;;;;;;;4911899;29;20056;-88
2023/10/22 07:20:47;;;;;;;4.03;1.88;;;;;;;;;;4907736;29;20379;-86
2023/10/22 07:23:32;;;;;;;3.60;1.80;;;;;;;;;;4909095;29;20047;-87
2023/10/22 07:26:18;;;;;;;3.28;1.63;;;;;;;;;;4898946;29;20043;-86
2023/10/22 07:29:03;;;;;;;6.57;2.08;;;;;;;;;;4924624;29;20458;-83
2023/10/22 07:31:48;;;;;;;2.40;1.40;;;;;;;;;;4903277;29;20054;-83
2023/10/22 07:35:05;;;;;;;4.93;1.52;;;;;;;;;;4909083;29;20027;-92
2023/10/22 07:37:50;;;;;;;5.50;1.50;;;;;;;;;;4907339;29;20035;-89
2023/10/22 07:40:36;;;;;;;9.55;2.35;;;;;;;;;;4902631;29;20075;-88
2023/10/22 07:43:22;;;;;;;8.57;2.70;;;;;;;;;;4910051;29;20086;-88
2023/10/22 07:46:09;;;;;;;10.02;3.65;;;;;;;;;;4908001;28;20023;-88
2023/10/22 07:48:54;;;;;;;5.28;1.52;;;;;;;;;;4900211;29;20531;-89
2023/10/22 07:51:39;;;;;;;5.38;1.67;;;;;;;;;;4904879;29;20521;-88
2023/10/22 07:54:25;;;;;;;6.22;2.58;;;;;;;;;;4946858;28;20130;-87
2023/10/22 07:57:10;;;;;;;2.67;1.42;;;;;;;;;;4939770;29;20027;-90
2023/10/22 07:59:55;;;;;;;3.88;1.60;;;;;;;;;;4935584;29;20023;-89
2023/10/22 08:02:41;;;;;;;5.63;1.70;;;;;;;;;;4939605;29;20032;-89
2023/10/22 08:05:26;;;;;;;3.65;1.17;;;;;;;;;;4929654;29;20042;-84
2023/10/22 08:08:11;;;;;;;5.63;1.30;;;;;;;;;;4918819;29;20080;-85
2023/10/22 08:10:57;;;;;;;6.05;1.20;;;;;;;;;;4931915;29;20087;-86
2023/10/22 08:13:43;;;;;;;6.57;1.95;;;;;;;;;;4937164;28;20159;-89
2023/10/22 08:16:28;;;;;;;4.15;1.45;;;;;;;;;;4932543;29;20549;-90
2023/10/22 08:19:13;;;;;;;4.10;1.30;;;;;;;;;;4930194;29;20051;-90
2023/10/22 08:21:58;;;;;;;7.97;1.88;;;;;;;;;;4936365;28;20162;-83
2023/10/22 08:24:48;;;;;;;6.05;1.65;;;;;;;;;;4931134;29;20321;-85
2023/10/22 08:27:34;;;;;;;5.40;1.48;;;;;;;;;;4922173;29;20046;-85
2023/10/22 08:30:19;;;;;;;6.20;1.83;;;;;;;;;;4925001;28;20035;-82
2023/10/22 08:33:04;;;;;;;5.05;1.40;;;;;;;;;;4934161;29;20038;-84
2023/10/22 08:35:49;;;;;;;6.38;1.60;;;;;;;;;;4931126;28;20093;-82
2023/10/22 08:38:35;;;;;;;4.55;1.00;;;;;;;;;;4932925;29;20023;-83
2023/10/22 08:41:21;;;;;;;5.97;1.60;;;;;;;;;;4932855;29;20496;-82
2023/10/22 08:44:06;;;;;;;6.72;1.63;;;;;;;;;;4934542;28;20019;-82
2023/10/22 08:46:52;;;;;;;6.90;1.42;;;;;;;;;;4924074;29;20032;-83
2023/10/22 08:49:40;;;;;;;6.75;1.75;;;;;;;;;;4948596;28;20023;-83
2023/10/22 08:52:26;;;;;;;5.30;1.30;;;;;;;;;;4934779;28;20122;-83
2023/10/22 08:55:11;;;;;;;4.10;1.20;;;;;;;;;;4947335;28;20561;-84
2023/10/22 08:57:59;;;;;;;4.70;1.58;;;;;;;;;;4933146;28;20054;-84
2023/10/22 09:00:45;;;;;;;5.20;1.73;;;;;;;;;;4930262;29;20031;-84
2023/10/22 09:03:32;;;;;;;4.40;1.75;;;;;;;;;;4934885;29;20081;-84
2023/10/22 09:06:17;;;;;;;4.22;1.48;;;;;;;;;;4933445;28;20027;-82
2023/10/22 09:09:03;;;;;;;6.03;1.48;;;;;;;;;;4918329;29;20032;-84
2023/10/22 09:11:53;;;;;;;9.68;1.80;;;;;;;;;;4935241;28;20149;-84
2023/10/22 09:14:41;;;;;;;6.82;1.40;;;;;;;;;;4920835;28;20027;-85
2023/10/22 09:17:26;;;;;;;3.60;1.35;;;;;;;;;;4932817;29;20095;-83
2023/10/22 09:20:21;;;;;;;3.08;1.27;;;;;;;;;;4932495;29;20031;-83
2023/10/22 09:23:10;;;;;;;3.47;1.27;;;;;;;;;;4934156;29;20114;-82
2023/10/22 09:25:56;;;;;;;3.80;1.20;;;;;;;;;;4933010;29;20050;-82
2023/10/22 09:28:41;;;;;;;6.50;2.35;;;;;;;;;;4932489;29;20558;-82
2023/10/22 09:31:27;;;;;;;13.27;2.97;;;;;;;;;;4950185;28;20576;-83
2023/10/22 09:34:24;;;;;;;3.60;1.25;;;;;;;;;;4946679;29;20576;-84
2023/10/22 09:37:09;;;;;;;3.58;1.30;;;;;;;;;;4933691;29;20039;-83
2023/10/22 09:39:54;;;;;;;5.78;1.20;;;;;;;;;;4934900;29;20051;-86
2023/10/22 09:42:40;;;;;;;5.53;1.27;;;;;;;;;;4932144;28;20019;-83
2023/10/22 09:45:25;;;;;;;6.20;1.00;;;;;;;;;;4932671;29;20036;-86
2023/10/22 09:48:15;;;;;;;5.60;1.30;;;;;;;;;;4933723;29;20040;-85
2023/10/22 09:51:03;;;;;;;4.45;1.40;;;;;;;;;;4931823;29;21281;-84
2023/10/22 09:53:52;;;;;;;4.22;1.30;;;;;;;;;;4923579;29;20047;-84
2023/10/22 09:56:38;;;;;;;5.32;1.48;;;;;;;;;;4908611;29;20023;-84
2023/10/22 09:59:27;;;;;;;9.98;1.92;;;;;;;;;;4902227;29;20114;-84
2023/10/22 10:02:16;;;;;;;2.90;0.90;;;;;;;;;;4914367;29;20032;-85
2023/10/22 10:05:02;;;;;;;5.88;1.60;;;;;;;;;;4914752;29;20471;-84
2023/10/22 10:07:47;;;;;;;6.47;1.70;;;;;;;;;;4906641;29;20789;-85
2023/10/22 10:10:35;;;;;;;5.78;1.67;;;;;;;;;;4900267;29;20110;-86
2023/10/22 10:13:20;;;;;;;5.25;1.45;;;;;;;;;;4913532;29;20059;-86
2023/10/22 10:16:06;;;;;;;6.15;1.95;;;;;;;;;;4906947;29;20116;-82
2023/10/22 10:18:58;;;;;;;5.78;1.52;;;;;;;;;;4912553;29;20116;-83
2023/10/22 10:21:45;;;;;;;5.75;1.13;;;;;;;;;;4910021;29;20031;-82
2023/10/22 10:24:31;;;;;;;4.18;1.38;;;;;;;;;;4911265;29;20118;-82
2023/10/22 10:27:16;;;;;;;6.40;1.60;;;;;;;;;;4912802;29;20023;-90
2023/10/22 10:30:14;;;;;;;3.17;1.30;;;;;;;;;;4914802;29;20034;-91
2023/10/22 10:33:00;;;;;;;3.10;1.48;;;;;;;;;;4923160;29;20039;-86
2023/10/22 10:35:46;;;;;;;4.20;1.52;;;;;;;;;;4936138;29;20028;-81
2023/10/22 10:38:31;;;;;;;2.38;1.50;;;;;;;;;;4912023;29;20413;-81
2023/10/22 10:41:46;;;;;;;6.22;1.27;;;;;;;;;;4929700;29;20023;-82
2023/10/22 10:44:32;;;;;;;6.20;1.70;;;;;;;;;;4911936;29;20115;-83
2023/10/22 10:47:20;;;;;;;6.18;1.63;;;;;;;;;;4921129;29;20094;-84
2023/10/22 10:50:06;;;;;;;4.45;1.58;;;;;;;;;;4923177;29;20467;-83
2023/10/22 10:52:56;;;;;;;9.93;2.58;;;;;;;;;;4920179;29;20103;-83
2023/10/22 10:55:41;;;;;;;3.58;1.20;;;;;;;;;;4913167;29;20078;-84
2023/10/22 10:58:26;;;;;;;5.32;1.73;;;;;;;;;;4906416;29;20039;-85
2023/10/22 11:01:13;;;;;;;4.35;2.13;;;;;;;;;;4919188;29;20398;-85
2023/10/22 11:04:08;;;;;;;9.13;2.03;;;;;;;;;;4919818;29;20081;-85
2023/10/22 11:06:53;;;;;;;8.48;1.65;;;;;;;;;;4919622;29;20031;-84
2023/10/22 11:09:39;;;;;;;4.13;1.40;;;;;;;;;;4919137;29;20166;-83
2023/10/22 11:12:25;;;;;;;3.00;1.10;;;;;;;;;;4917920;29;20034;-82
2023/10/22 11:15:11;;;;;;;4.57;1.45;;;;;;;;;;4921386;29;20050;-83
2023/10/22 11:18:00;;;;;;;8.25;2.00;;;;;;;;;;4910875;29;20046;-83
2023/10/22 11:20:55;;;;;;;6.53;1.70;;;;;;;;;;4920415;29;20114;-84
2023/10/22 11:23:40;;;;;;;4.90;1.70;;;;;;;;;;4920961;29;20465;-82
2023/10/22 11:26:26;;;;;;;3.60;1.42;;;;;;;;;;4918957;29;20064;-84
2023/10/22 11:29:11;;;;;;;7.15;2.42;;;;;;;;;;4919368;29;20470;-84
2023/10/22 11:31:57;;;;;;;3.88;1.23;;;;;;;;;;4919009;29;20122;-84
2023/10/22 11:35:02;;;;;;;3.85;2.00;;;;;;;;;;4926749;29;20110;-84
2023/10/22 11:37:48;;;;;;;3.22;1.15;;;;;;;;;;4918840;29;20038;-84
2023/10/22 11:40:37;;;;;;;4.47;1.55;;;;;;;;;;4924304;29;20351;-83
2023/10/22 11:43:27;;;;;;;4.32;1.33;;;;;;;;;;4916064;29;20043;-83
2023/10/22 11:46:12;;;;;;;4.45;1.23;;;;;;;;;;4916890;29;20549;-84
2023/10/22 11:48:59;;;;;;;6.82;1.65;;;;;;;;;;4931541;29;20071;-84
2023/10/22 11:51:44;;;;;;;3.83;1.30;;;;;;;;;;4920327;29;20020;-83
2023/10/22 11:54:43;;;;;;;5.38;1.45;;;;;;;;;;4937650;29;20047;-83
2023/10/22 11:57:28;;;;;;;6.40;1.83;;;;;;;;;;4928695;29;20048;-84
2023/10/22 12:00:14;;;;;;;5.60;1.38;;;;;;;;;;4942193;29;20039;-83
2023/10/22 12:02:59;;;;;;;6.45;1.58;;;;;;;;;;4934390;29;20016;-84
2023/10/22 12:05:45;;;;;;;4.03;1.52;;;;;;;;;;4927673;29;20024;-85
2023/10/22 12:08:30;;;;;;;6.22;1.58;;;;;;;;;;4933690;29;20096;-84
2023/10/22 12:11:15;;;;;;;5.10;1.40;;;;;;;;;;4922909;29;20404;-85
2023/10/22 12:14:01;;;;;;;3.30;1.58;;;;;;;;;;4917675;29;20027;-84
2023/10/22 12:16:46;;;;;;;3.38;1.20;;;;;;;;;;4918344;29;20322;-85
2023/10/22 12:19:31;;;;;;;3.28;1.27;;;;;;;;;;4906632;29;20036;-84
2023/10/22 12:22:17;;;;;;;7.38;1.50;;;;;;;;;;4917864;29;20069;-85
2023/10/22 12:25:04;;;;;;;4.50;1.80;;;;;;;;;;4921456;29;20431;-83
2023/10/22 12:27:49;;;;;;;5.45;1.50;;;;;;;;;;4918584;29;20024;-85
2023/10/22 12:30:36;;;;;;;4.63;2.33;;;;;;;;;;4922550;29;20079;-85
2023/10/22 12:33:22;;;;;;;7.15;1.50;;;;;;;;;;4910143;29;20124;-85
2023/10/22 12:36:07;;;;;;;3.17;1.40;;;;;;;;;;4933647;29;20123;-84
2023/10/22 12:38:53;;;;;;;4.35;1.60;;;;;;;;;;4922674;29;20043;-84
2023/10/22 12:41:39;;;;;;;2.85;1.33;;;;;;;;;;4920963;29;20020;-83
2023/10/22 12:44:24;;;;;;;5.90;1.65;;;;;;;;;;4934067;28;20475;-85
2023/10/22 12:47:12;;;;;;;4.80;1.60;;;;;;;;;;4922141;29;20065;-83
2023/10/22 12:49:57;;;;;;;5.57;1.88;;;;;;;;;;4903180;29;20137;-83
2023/10/22 12:52:46;;;;;;;4.40;1.58;;;;;;;;;;4919622;29;20102;-83
2023/10/22 12:55:31;;;;;;;4.07;1.10;;;;;;;;;;4931668;28;20044;-84
2023/10/22 12:58:17;;;;;;;4.00;1.20;;;;;;;;;;4920752;29;20319;-84
2023/10/22 13:01:04;;;;;;;5.22;1.38;;;;;;;;;;4920317;29;20450;-83
2023/10/22 13:03:49;;;;;;;8.13;1.60;;;;;;;;;;4931472;29;20031;-83
2023/10/22 13:06:34;;;;;;;3.40;1.27;;;;;;;;;;4920373;29;20086;-82
2023/10/22 13:09:20;;;;;;;4.22;1.40;;;;;;;;;;4919484;29;20362;-82
2023/10/22 13:12:05;;;;;;;7.63;2.03;;;;;;;;;;4920555;29;20052;-83
2023/10/22 13:14:51;;;;;;;5.45;1.58;;;;;;;;;;4920872;29;20364;-83
2023/10/22 13:17:36;;;;;;;2.58;1.58;;;;;;;;;;4914912;29;20039;-85
2023/10/22 13:20:21;;;;;;;6.65;1.65;;;;;;;;;;4920351;29;20034;-83
2023/10/22 13:23:07;;;;;;;5.55;2.35;;;;;;;;;;4920713;29;20054;-84
2023/10/22 13:25:52;;;;;;;6.03;1.75;;;;;;;;;;4920146;29;20035;-83
2023/10/22 13:28:37;;;;;;;4.22;1.83;;;;;;;;;;4904775;29;20557;-84
2023/10/22 13:31:25;;;;;;;6.38;1.90;;;;;;;;;;4899071;29;20529;-84
2023/10/22 13:34:10;;;;;;;3.70;1.38;;;;;;;;;;4919999;29;20030;-82
2023/10/22 13:36:55;;;;;;;6.40;1.65;;;;;;;;;;4920082;29;20031;-84
2023/10/22 13:39:43;;;;;;;4.53;1.40;;;;;;;;;;4921854;29;20032;-84
2023/10/22 13:42:29;;;;;;;6.03;1.60;;;;;;;;;;4919035;29;20119;-83
2023/10/22 13:45:14;;;;;;;4.53;1.25;;;;;;;;;;4907493;29;20031;-83
2023/10/22 13:47:59;;;;;;;5.50;1.17;;;;;;;;;;4906616;29;20019;-83
2023/10/22 13:50:45;;;;;;;3.63;1.33;;;;;;;;;;4920341;29;20038;-84
2023/10/22 13:53:30;;;;;;;3.85;1.35;;;;;;;;;;4919395;28;20054;-84
2023/10/22 13:56:15;;;;;;;7.15;2.13;;;;;;;;;;4921318;29;20031;-84
2023/10/22 13:59:00;;;;;;;4.47;1.77;;;;;;;;;;4913966;29;20533;-84
2023/10/22 14:01:45;;;;;;;4.28;1.35;;;;;;;;;;4917391;29;20063;-83
2023/10/22 14:04:31;;;;;;;4.45;1.33;;;;;;;;;;4932960;29;20024;-84
2023/10/22 14:07:16;;;;;;;2.85;1.20;;;;;;;;;;4918751;29;20050;-83
2023/10/22 14:10:01;;;;;;;3.28;1.17;;;;;;;;;;4919974;29;20039;-83
2023/10/22 14:12:46;;;;;;;4.18;1.20;;;;;;;;;;4919458;29;20031;-83
2023/10/22 14:15:32;;;;;;;4.13;1.50;;;;;;;;;;4920698;29;20027;-84
2023/10/22 14:18:17;;;;;;;3.35;1.30;;;;;;;;;;4925336;29;20051;-84
2023/10/22 14:21:09;;;;;;;3.90;1.20;;;;;;;;;;4907680;29;20047;-84
2023/10/22 14:23:54;;;;;;;4.95;1.40;;;;;;;;;;4919125;29;20114;-82
2023/10/22 14:26:40;;;;;;;5.88;1.27;;;;;;;;;;4919697;29;20023;-85
2023/10/22 14:29:26;;;;;;;3.42;1.40;;;;;;;;;;4920283;29;20038;-84
2023/10/22 14:32:11;;;;;;;2.97;0.90;;;;;;;;;;4919287;29;20035;-84
2023/10/22 14:34:56;;;;;;;4.57;1.40;;;;;;;;;;4913032;29;20052;-84
2023/10/22 14:37:42;;;;;;;2.80;1.40;;;;;;;;;;4909395;29;20047;-84
2023/10/22 14:40:27;;;;;;;5.90;1.20;;;;;;;;;;4912736;29;20534;-84
2023/10/22 14:43:12;;;;;;;4.05;1.65;;;;;;;;;;4916778;29;20031;-84
2023/10/22 14:46:03;;;;;;;3.67;1.38;;;;;;;;;;4945903;28;20023;-85
2023/10/22 14:48:54;;;;;;;8.00;2.53;;;;;;;;;;4919267;29;20027;-84
2023/10/22 14:51:39;;;;;;;5.47;1.20;;;;;;;;;;4918097;29;20173;-84
2023/10/22 14:54:24;;;;;;;3.03;1.10;;;;;;;;;;4924307;29;20075;-84
2023/10/22 14:57:10;;;;;;;3.60;1.50;;;;;;;;;;4931483;28;20031;-85
2023/10/22 14:59:55;;;;;;;6.50;1.77;;;;;;;;;;4943888;28;20019;-82
2023/10/22 15:02:40;;;;;;;4.80;1.48;;;;;;;;;;4925971;29;20438;-84
2023/10/22 15:05:25;;;;;;;2.80;1.02;;;;;;;;;;4931918;29;20306;-85
2023/10/22 15:08:10;;;;;;;3.45;1.13;;;;;;;;;;4930064;29;20116;-85
2023/10/22 15:10:56;;;;;;;5.40;2.40;;;;;;;;;;4920966;29;20330;-84
2023/10/22 15:13:41;;;;;;;2.60;1.80;;;;;;;;;;4918551;29;20581;-84
2023/10/22 15:16:26;;;;;;;4.85;2.17;;;;;;;;;;4931272;29;20027;-84
2023/10/22 15:19:11;;;;;;;7.45;2.17;;;;;;;;;;4931389;29;20031;-84
2023/10/22 15:21:57;;;;;;;7.82;1.98;;;;;;;;;;4932271;29;20482;-83
2023/10/22 15:24:46;;;;;;;6.53;1.80;;;;;;;;;;4931885;29;20056;-84
2023/10/22 15:27:31;;;;;;;5.45;1.88;;;;;;;;;;4932650;29;20266;-83
2023/10/22 15:30:16;;;;;;;3.65;1.75;;;;;;;;;;4932594;29;20020;-83
2023/10/22 15:33:02;;;;;;;4.13;1.83;;;;;;;;;;4922313;29;20098;-83
2023/10/22 15:35:57;;;;;;;5.68;1.60;;;;;;;;;;4934152;29;20046;-83
2023/10/22 15:38:42;;;;;;;6.68;2.25;;;;;;;;;;4930900;29;20096;-83
2023/10/22 15:41:28;;;;;;;4.75;1.40;;;;;;;;;;4931869;29;20023;-83
2023/10/22 15:44:13;;;;;;;3.92;1.77;;;;;;;;;;4918363;29;20028;-82
2023/10/22 15:46:58;;;;;;;3.25;1.73;;;;;;;;;;4918725;29;20031;-83
2023/10/22 15:49:43;;;;;;;5.90;1.92;;;;;;;;;;4931758;29;20028;-85
2023/10/22 15:52:28;;;;;;;4.63;2.05;;;;;;;;;;4928542;29;20032;-83
2023/10/22 15:55:14;;;;;;;5.75;2.55;;;;;;;;;;4929948;29;20052;-84
2023/10/22 15:57:59;;;;;;;8.27;3.28;;;;;;;;;;4933093;29;20059;-83
2023/10/22 16:00:44;;;;;;;6.57;3.42;;;;;;;;;;4936559;29;20027;-84
2023/10/22 16:03:30;;;;;;;7.72;3.45;;;;;;;;;;4929028;29;20028;-85
2023/10/22 16:06:15;;;;;;;4.63;2.35;;;;;;;;;;4936122;29;20502;-82
2023/10/22 16:09:00;;;;;;;9.40;3.10;;;;;;;;;;4926248;29;20027;-84
2023/10/22 16:11:48;;;;;;;4.07;2.03;;;;;;;;;;4933737;29;20455;-84
2023/10/22 16:14:39;;;;;;;7.85;2.33;;;;;;;;;;4935397;29;20032;-83
2023/10/22 16:17:25;;;;;;;4.38;1.73;;;;;;;;;;4929550;29;20356;-84
2023/10/22 16:20:11;;;;;;;5.70;1.75;;;;;;;;;;4929797;29;20074;-83
2023/10/22 16:22:57;;;;;;;5.53;1.83;;;;;;;;;;4926504;29;20390;-83
2023/10/22 16:25:46;;;;;;;18.58;7.05;;;;;;;;;;4935098;29;20419;-83
2023/10/22 16:28:31;;;;;;;11.17;3.10;;;;;;;;;;4930383;29;20059;-83
2023/10/22 16:31:16;;;;;;;6.60;2.50;;;;;;;;;;4933197;29;20039;-83
2023/10/22 16:34:01;;;;;;;6.05;2.42;;;;;;;;;;4933770;29;20095;-82
2023/10/22 16:36:46;;;;;;;7.65;2.28;;;;;;;;;;4934913;29;20031;-83
2023/10/22 16:39:32;;;;;;;10.40;3.22;;;;;;;;;;4939832;28;20044;-82